Terminal Aerodrome Forecast
Issued by NWS

Home | Current Version | Previous Version | Text Only | Print | Product List | Glossary On
Versions: 1 2 3 4 5 6 7 8 9 10 11 12 13 14 15 16 17 18 19
404
FTAK31 PAJN 272321
TAFAGY
TAF
PAGY 272321Z 2800/2824 21011KT P6SM VCSH SCT025 BKN050
     FM280400 VRB03KT P6SM FEW025 BKN050
     FM281000 02008KT P6SM FEW015 BKN050
     FM281800 02012KT P6SM SCT050
      AMD LTD TO CLD VIS AND WIND=

USA.gov is the U.S. government's official web portal to all federal, state and local government web resources and services.